createdAt,value
2022-09-06T00:01:15.161Z,100818.25
2022-09-06T00:03:46.901Z,100819.13
2022-09-06T00:06:18.409Z,100803.31
2022-09-06T00:08:48.680Z,100758.50
2022-09-06T00:11:17.583Z,100819.19
2022-09-06T00:13:44.967Z,100813.94
2022-09-06T00:16:14.647Z,100809.53
2022-09-06T00:18:44.633Z,100806.88
2022-09-06T00:21:18.063Z,100805.16
2022-09-06T00:23:44.811Z,100800.75
2022-09-06T00:26:14.195Z,100776.09
2022-09-06T00:28:41.186Z,100811.28
2022-09-06T00:31:20.969Z,100790.16
2022-09-06T00:33:53.790Z,100778.69
2022-09-06T00:36:24.248Z,100786.66
2022-09-06T00:38:53.984Z,100820.91
2022-09-06T00:41:20.995Z,100820.94
2022-09-06T00:43:47.792Z,100756.72
2022-09-06T00:46:27.210Z,100784.81
2022-09-06T00:49:00.926Z,100815.59
2022-09-06T00:51:28.847Z,100768.13
2022-09-06T00:53:55.678Z,100798.00
2022-09-06T00:56:24.103Z,100698.69
2022-09-06T00:58:53.598Z,100812.97
2022-09-06T01:01:20.598Z,100763.72
2022-09-06T01:03:47.944Z,100732.97
2022-09-06T01:06:26.504Z,100793.59
2022-09-06T01:09:19.309Z,100745.28
2022-09-06T01:12:10.264Z,100819.94
2022-09-06T01:14:49.202Z,100811.16
2022-09-06T01:17:45.037Z,100811.16
2022-09-06T01:20:39.136Z,100813.81
2022-09-06T01:23:42.379Z,100774.22
2022-09-06T01:26:45.288Z,100808.56
2022-09-06T01:29:34.335Z,100762.84
2022-09-06T01:32:05.233Z,100810.28
2022-09-06T01:34:40.397Z,100701.31
2022-09-06T01:37:12.382Z,100815.56
2022-09-06T01:39:41.274Z,100727.69
2022-09-06T01:42:15.761Z,100688.13
2022-09-06T01:44:49.901Z,100696.88
2022-09-06T01:47:28.035Z,100801.50
2022-09-06T01:50:12.553Z,100805.88
2022-09-06T01:53:06.985Z,100800.63
2022-09-06T01:55:49.098Z,100769.88
2022-09-06T01:58:48.847Z,100805.00
2022-09-06T02:01:15.559Z,100804.97
2022-09-06T02:03:51.092Z,100789.13
2022-09-06T02:06:22.445Z,100688.84
2022-09-06T02:08:54.895Z,100738.88
2022-09-06T02:11:24.411Z,100784.50
2022-09-06T02:13:54.313Z,100793.41
2022-09-06T02:16:25.979Z,100806.59
2022-09-06T02:19:00.982Z,100807.47
2022-09-06T02:21:30.706Z,100780.19
2022-09-06T02:24:00.079Z,100801.28
2022-09-06T02:26:31.065Z,100649.94
2022-09-06T02:28:57.873Z,100795.03
2022-09-06T02:31:31.736Z,100766.88
2022-09-06T02:34:01.370Z,100749.28
2022-09-06T02:36:30.258Z,100755.38
2022-09-06T02:38:57.319Z,100800.19
2022-09-06T02:41:24.856Z,100684.88
2022-09-06T02:43:57.019Z,100800.09
2022-09-06T02:46:24.626Z,100791.28
2022-09-06T02:48:51.633Z,100800.06
2022-09-06T02:51:21.731Z,100729.69
2022-09-06T02:53:48.825Z,100796.47
2022-09-06T02:56:15.576Z,100767.41
2022-09-06T02:58:45.006Z,100800.84
2022-09-06T03:01:13.937Z,100799.03
2022-09-06T03:03:43.626Z,100733.03
2022-09-06T03:06:15.087Z,100788.47
2022-09-06T03:08:44.324Z,100792.81
2022-09-06T03:11:14.338Z,100777.00
2022-09-06T03:13:46.390Z,100791.91
2022-09-06T03:16:15.611Z,100793.69
2022-09-06T03:18:42.797Z,100800.69
2022-09-06T03:21:10.297Z,100777.84
2022-09-06T03:23:39.554Z,100790.16
2022-09-06T03:26:09.520Z,100707.34
2022-09-06T03:28:36.333Z,100721.41
2022-09-06T03:31:05.816Z,100711.78
2022-09-06T03:33:32.813Z,100794.50
2022-09-06T03:36:05.605Z,100798.03
2022-09-06T03:38:32.623Z,100788.38
2022-09-06T03:40:59.578Z,100776.88
2022-09-06T03:43:27.884Z,100786.59
2022-09-06T03:45:57.229Z,100762.75
2022-09-06T03:48:27.931Z,100790.88
2022-09-06T03:50:58.767Z,100682.66
2022-09-06T03:53:29.316Z,100778.53
2022-09-06T03:56:00.225Z,100804.03
2022-09-06T03:58:31.900Z,100731.91
2022-09-06T04:01:02.221Z,100801.41
2022-09-06T04:03:29.286Z,100742.47
2022-09-06T04:05:56.027Z,100783.72
2022-09-06T04:08:27.648Z,100729.22
2022-09-06T04:10:55.796Z,100792.63
2022-09-06T04:13:23.537Z,100708.06
2022-09-06T04:15:55.181Z,100797.84
2022-09-06T04:18:25.009Z,100803.06
2022-09-06T04:20:53.000Z,100772.25
2022-09-06T04:23:22.963Z,100633.19
2022-09-06T04:25:58.078Z,100809.16
2022-09-06T04:28:26.663Z,100731.78
2022-09-06T04:30:55.667Z,100707.16
2022-09-06T04:33:25.922Z,100803.09
2022-09-06T04:35:53.944Z,100686.91
2022-09-06T04:38:28.125Z,100663.00
2022-09-06T04:40:58.164Z,100810.00
2022-09-06T04:43:29.424Z,100755.41
2022-09-06T04:45:56.273Z,100806.50
2022-09-06T04:48:25.937Z,100773.91
2022-09-06T04:50:53.323Z,100795.16
2022-09-06T04:53:20.097Z,100799.53
2022-09-06T04:55:47.898Z,100802.13
2022-09-06T04:58:14.618Z,100788.13
2022-09-06T05:00:44.574Z,100773.09
2022-09-06T05:03:11.465Z,100793.41
2022-09-06T05:05:38.794Z,100787.31
2022-09-06T05:08:08.297Z,100774.03
2022-09-06T05:10:38.120Z,100786.41
2022-09-06T05:13:09.789Z,100794.31
2022-09-06T05:15:37.068Z,100789.91
2022-09-06T05:18:05.723Z,100658.72
2022-09-06T05:20:33.043Z,100798.59
2022-09-06T05:23:02.006Z,100796.88
2022-09-06T05:25:28.988Z,100796.06
2022-09-06T05:27:55.721Z,100751.25
2022-09-06T05:30:23.286Z,100730.13
2022-09-06T05:32:55.387Z,100680.09
2022-09-06T05:35:22.176Z,100801.59
2022-09-06T05:37:51.707Z,100801.59
2022-09-06T05:40:18.392Z,100799.84
2022-09-06T05:42:45.117Z,100799.81
2022-09-06T05:45:11.852Z,100804.16
2022-09-06T05:47:38.694Z,100812.91
2022-09-06T05:50:08.516Z,100621.13
2022-09-06T05:52:38.223Z,100807.66
2022-09-06T05:55:09.721Z,100732.94
2022-09-06T05:57:39.018Z,100753.19
2022-09-06T06:00:07.226Z,100778.75
2022-09-06T06:02:40.833Z,100703.13
2022-09-06T06:05:08.223Z,100799.09
2022-09-06T06:07:37.666Z,100799.13
2022-09-06T06:10:05.865Z,100708.50
2022-09-06T06:12:32.605Z,100801.81
2022-09-06T06:15:01.868Z,100802.69
2022-09-06T06:17:28.659Z,100804.44
2022-09-06T06:19:58.334Z,100798.34
2022-09-06T06:22:27.437Z,100746.47
2022-09-06T06:24:54.063Z,100800.19
2022-09-06T06:27:21.183Z,100802.03
2022-09-06T06:29:50.643Z,100806.50
2022-09-06T06:32:17.436Z,100723.91
2022-09-06T06:34:44.241Z,100796.06
2022-09-06T06:37:13.557Z,100741.59
2022-09-06T06:39:42.688Z,100787.38
2022-09-06T06:42:09.533Z,100666.09
2022-09-06T06:44:53.435Z,100785.66
2022-09-06T06:47:20.389Z,100799.75
2022-09-06T06:49:53.468Z,100800.66
2022-09-06T06:52:21.687Z,100803.28
2022-09-06T06:54:50.239Z,100809.44
2022-09-06T06:57:17.589Z,100798.94
2022-09-06T06:59:44.458Z,100776.97
2022-09-06T07:02:12.711Z,100806.00
2022-09-06T07:04:39.671Z,100815.69
2022-09-06T07:12:43.003Z,100809.53
2022-09-06T07:15:09.912Z,100791.97
2022-09-06T07:17:36.792Z,100817.44
2022-09-06T07:22:39.486Z,100768.25
2022-09-06T07:25:07.148Z,100817.44
2022-09-06T07:27:50.153Z,100813.94
2022-09-06T07:30:22.007Z,100780.47
2022-09-06T07:32:51.990Z,100784.03
2022-09-06T07:35:20.536Z,100775.25
2022-09-06T07:37:55.099Z,100819.13
2022-09-06T07:40:21.977Z,100811.19
2022-09-06T07:42:51.097Z,100759.38
2022-09-06T07:45:17.754Z,100805.00
2022-09-06T07:47:59.898Z,100800.53
2022-09-06T07:53:16.559Z,100805.78
2022-09-06T07:55:46.329Z,100809.25
2022-09-06T07:58:13.166Z,100696.88
2022-09-06T08:00:41.352Z,100789.88
2022-09-06T08:03:11.513Z,100757.34
2022-09-06T08:11:21.464Z,100799.38
2022-09-06T08:13:52.094Z,100805.50
2022-09-06T08:16:20.183Z,100712.44
2022-09-06T08:18:53.833Z,100758.00
2022-09-06T08:21:23.671Z,100797.50
2022-09-06T08:23:52.367Z,100727.31
2022-09-06T08:26:21.084Z,100729.91
2022-09-06T08:29:02.400Z,100796.47
2022-09-06T08:31:33.443Z,100769.16
2022-09-06T08:34:01.625Z,100740.06
2022-09-06T08:36:33.547Z,100739.00
2022-09-06T08:39:02.995Z,100783.56
2022-09-06T08:41:53.281Z,100794.94
2022-09-06T08:47:14.865Z,100794.00
2022-09-06T08:50:01.464Z,100639.84
2022-09-06T08:52:31.224Z,100786.19
2022-09-06T08:55:16.625Z,100775.56
2022-09-06T08:57:53.749Z,100787.88
2022-09-06T09:00:21.230Z,100780.72
2022-09-06T09:03:18.253Z,100768.25
2022-09-06T09:05:49.445Z,100748.91
2022-09-06T09:08:24.895Z,100776.88
2022-09-06T09:10:55.337Z,100768.75
2022-09-06T09:13:36.428Z,100779.94
2022-09-06T09:16:06.960Z,100706.91
2022-09-06T09:18:36.617Z,100708.38
2022-09-06T09:21:03.947Z,100639.72
2022-09-06T09:23:31.132Z,100632.47
2022-09-06T09:26:05.467Z,100688.19
2022-09-06T09:28:35.508Z,100757.16
2022-09-06T09:31:02.546Z,100732.44
2022-09-06T09:33:39.332Z,100740.09
2022-09-06T09:36:14.140Z,100741.78
2022-09-06T09:38:45.171Z,100681.09
2022-09-06T09:41:36.067Z,100736.44
2022-09-06T09:44:05.682Z,100691.47
2022-09-06T09:46:39.724Z,100707.06
2022-09-06T09:49:24.370Z,100648.19
2022-09-06T09:52:11.225Z,100718.72
2022-09-06T09:54:44.356Z,100714.03
2022-09-06T09:57:18.739Z,100711.94
2022-09-06T09:59:54.334Z,100707.84
2022-09-06T10:02:32.105Z,100709.25
2022-09-06T10:05:09.949Z,100703.63
2022-09-06T10:07:58.920Z,100632.44
2022-09-06T10:10:27.929Z,100642.41
2022-09-06T10:13:12.822Z,100697.59
2022-09-06T10:15:41.045Z,100613.00
2022-09-06T10:18:35.659Z,100599.59
2022-09-06T10:21:09.320Z,100624.03
2022-09-06T10:24:27.884Z,100687.47
2022-09-06T10:27:08.783Z,100591.41
2022-09-06T10:30:11.199Z,100677.84
2022-09-06T10:32:41.682Z,100680.06
2022-09-06T10:35:25.797Z,100618.41
2022-09-06T10:38:07.630Z,100547.41
2022-09-06T10:40:39.682Z,100675.31
2022-09-06T10:43:09.008Z,100641.56
2022-09-06T10:45:48.621Z,100665.34
2022-09-06T10:48:40.082Z,100626.84
2022-09-06T10:51:12.887Z,100656.78
2022-09-06T10:53:53.762Z,100603.06
2022-09-06T10:56:29.740Z,100620.88
2022-09-06T11:02:11.330Z,100604.16
2022-09-06T11:07:31.790Z,100602.50
2022-09-06T11:10:07.819Z,100641.69
2022-09-06T11:12:48.780Z,100616.06
2022-09-06T11:15:17.780Z,100540.47
2022-09-06T11:18:09.269Z,100646.31
2022-09-06T11:21:26.592Z,100648.69
2022-09-06T11:24:14.181Z,100577.78
2022-09-06T11:27:04.600Z,100624.72
2022-09-06T11:29:32.664Z,100612.56
2022-09-06T11:32:19.052Z,100604.06
2022-09-06T11:34:57.130Z,100620.19
2022-09-06T11:37:43.811Z,100414.53
2022-09-06T11:43:01.046Z,100623.78
2022-09-06T11:45:47.763Z,100621.50
2022-09-06T11:48:23.504Z,100612.25
2022-09-06T11:50:59.271Z,100612.72
2022-09-06T11:53:50.581Z,100617.56
2022-09-06T11:56:28.366Z,100595.97
2022-09-06T11:59:03.631Z,100596.75
2022-09-06T12:01:30.308Z,100605.94
2022-09-06T12:04:05.595Z,100414.94
2022-09-06T12:06:47.824Z,100586.56
2022-09-06T12:09:49.369Z,100556.00
2022-09-06T12:12:42.007Z,100590.56
2022-09-06T12:15:30.109Z,100572.34
2022-09-06T12:18:01.936Z,100575.97
2022-09-06T12:20:56.684Z,100565.44
2022-09-06T12:23:34.679Z,100566.63
2022-09-06T12:26:43.143Z,100564.13
2022-09-06T12:29:12.654Z,100519.69
2022-09-06T12:32:01.679Z,100546.91
2022-09-06T12:34:34.291Z,100417.00
2022-09-06T12:37:11.109Z,100531.28
2022-09-06T12:39:38.197Z,100494.84
2022-09-06T12:42:12.002Z,100480.09
2022-09-06T12:44:44.050Z,100533.44
2022-09-06T12:47:28.100Z,100454.59
2022-09-06T12:50:17.970Z,100524.44
2022-09-06T12:52:59.486Z,100536.69
2022-09-06T12:55:35.429Z,100482.78
2022-09-06T12:58:06.235Z,100519.16
2022-09-06T13:00:45.389Z,100449.06
2022-09-06T13:03:31.572Z,100487.03
2022-09-06T13:06:10.110Z,100502.25
2022-09-06T13:08:45.880Z,100420.25
2022-09-06T13:11:17.296Z,100475.06
2022-09-06T13:14:03.959Z,100461.28
2022-09-06T13:16:37.260Z,100486.41
2022-09-06T13:19:29.871Z,100453.84
2022-09-06T13:21:58.435Z,100461.38
2022-09-06T13:24:37.155Z,100478.75
2022-09-06T13:27:24.049Z,100475.84
2022-09-06T13:30:02.635Z,100372.63
2022-09-06T13:32:30.276Z,100434.66
2022-09-06T13:34:59.331Z,100471.16
2022-09-06T13:37:28.024Z,100433.09
2022-09-06T13:39:54.756Z,100385.91
2022-09-06T13:42:36.635Z,100469.16
2022-09-06T13:45:24.021Z,100376.63
2022-09-06T13:47:50.968Z,100415.56
2022-09-06T13:50:17.711Z,100316.97
2022-09-06T13:52:44.509Z,100460.16
2022-09-06T13:55:18.337Z,100422.59
2022-09-06T13:57:45.905Z,100442.59
2022-09-06T14:00:17.335Z,100428.88
2022-09-06T14:02:44.108Z,100452.75
2022-09-06T14:05:13.568Z,100464.78
2022-09-06T14:07:43.787Z,100410.03
2022-09-06T14:10:15.536Z,100414.44
2022-09-06T14:12:42.757Z,100415.56
2022-09-06T14:15:10.190Z,100437.34
2022-09-06T14:17:37.373Z,100350.09
2022-09-06T14:20:05.053Z,100352.09
2022-09-06T14:22:34.516Z,100445.13
2022-09-06T14:25:01.765Z,100443.63
2022-09-06T14:27:32.780Z,100438.41
2022-09-06T14:29:59.594Z,100376.22
2022-09-06T14:32:29.252Z,100447.97
2022-09-06T14:34:55.978Z,100296.81
2022-09-06T14:37:22.884Z,100392.94
2022-09-06T14:39:50.206Z,100357.94
2022-09-06T14:42:17.102Z,100432.59
2022-09-06T14:44:44.386Z,100434.41
2022-09-06T14:47:12.564Z,100385.88
2022-09-06T14:49:41.698Z,100431.03
2022-09-06T14:52:09.021Z,100284.97
2022-09-06T14:54:35.827Z,100432.22
2022-09-06T14:57:07.641Z,100406.16
2022-09-06T14:59:34.995Z,100392.44
2022-09-06T15:02:02.223Z,100429.81
2022-09-06T15:04:29.942Z,100428.03
2022-09-06T15:07:02.352Z,100337.69
2022-09-06T15:09:29.303Z,100379.53
2022-09-06T15:11:58.746Z,100395.44
2022-09-06T15:14:36.237Z,100434.56
2022-09-06T15:17:08.870Z,100351.59
2022-09-06T15:19:37.017Z,100436.88
2022-09-06T15:22:06.768Z,100353.91
2022-09-06T15:24:34.535Z,100429.66
2022-09-06T15:27:03.835Z,100314.84
2022-09-06T15:29:31.265Z,100320.56
2022-09-06T15:31:58.457Z,100434.22
2022-09-06T15:34:26.248Z,100430.09
2022-09-06T15:36:53.532Z,100425.72
2022-09-06T15:39:20.399Z,100377.63
2022-09-06T15:41:47.894Z,100359.44
2022-09-06T15:44:17.213Z,100440.78
2022-09-06T15:46:47.502Z,100437.50
2022-09-06T15:49:20.334Z,100336.00
2022-09-06T15:51:49.299Z,100377.13
2022-09-06T15:54:38.823Z,100445.72
2022-09-06T15:57:05.883Z,100449.91
2022-09-06T15:59:32.868Z,100383.66
2022-09-06T16:02:05.744Z,100199.09
2022-09-06T16:04:32.908Z,100442.22
2022-09-06T16:07:04.937Z,100364.69
2022-09-06T16:09:32.118Z,100486.22
2022-09-06T16:12:03.381Z,100444.53
2022-09-06T16:14:30.091Z,100494.50
2022-09-06T16:16:57.536Z,100495.38
2022-09-06T16:19:27.897Z,100431.16
2022-09-06T16:21:58.724Z,100492.13
2022-09-06T16:24:30.263Z,100495.91
2022-09-06T16:26:57.399Z,100442.97
2022-09-06T16:29:27.932Z,100467.53
2022-09-06T16:31:59.846Z,100351.50
2022-09-06T16:34:32.077Z,100370.03
2022-09-06T16:37:01.561Z,100486.31
2022-09-06T16:39:30.826Z,100407.03
2022-09-06T16:41:57.941Z,100356.56
2022-09-06T16:44:24.871Z,100446.56
2022-09-06T16:46:53.857Z,100485.44
2022-09-06T16:49:20.814Z,100483.97
2022-09-06T16:51:49.792Z,100368.00
2022-09-06T16:54:26.103Z,100477.31
2022-09-06T16:56:52.968Z,100426.00
2022-09-06T16:59:21.699Z,100474.28
2022-09-06T17:01:50.563Z,100388.75
2022-09-06T17:04:19.174Z,100475.38
2022-09-06T17:06:47.866Z,100444.09
2022-09-06T17:09:19.248Z,100480.03
2022-09-06T17:11:48.766Z,100478.25
2022-09-06T17:14:21.905Z,100484.41
2022-09-06T17:17:07.400Z,100484.59
2022-09-06T17:19:40.672Z,100420.19
2022-09-06T17:22:13.071Z,100497.97
2022-09-06T17:24:40.756Z,100363.41
2022-09-06T17:27:13.604Z,100500.75
2022-09-06T17:29:43.092Z,100410.94
2022-09-06T17:32:10.971Z,100435.53
2022-09-06T17:34:51.005Z,100503.81
2022-09-06T17:37:25.037Z,100524.25
2022-09-06T17:40:17.906Z,100403.66
2022-09-06T17:42:52.848Z,100381.25
2022-09-06T17:45:26.988Z,100475.63
2022-09-06T17:48:02.573Z,100373.50
2022-09-06T17:50:36.742Z,100329.94
2022-09-06T17:53:12.740Z,100507.44
2022-09-06T17:55:40.926Z,100519.31
2022-09-06T17:58:08.488Z,100448.59
2022-09-06T18:00:41.259Z,100517.03
2022-09-06T18:03:08.912Z,100458.47
2022-09-06T18:05:43.013Z,100497.84
2022-09-06T18:08:10.293Z,100513.72
2022-09-06T18:10:39.479Z,100434.09
2022-09-06T18:13:06.525Z,100392.19
2022-09-06T18:15:42.905Z,100403.59
2022-09-06T18:18:12.317Z,100506.00
2022-09-06T18:20:40.076Z,100512.22
2022-09-06T18:23:06.945Z,100514.84
2022-09-06T18:25:36.101Z,100328.56
2022-09-06T18:28:06.233Z,100414.19
2022-09-06T18:30:35.703Z,100506.94
2022-09-06T18:33:06.271Z,100506.88
2022-09-06T18:35:33.077Z,100480.56
2022-09-06T18:38:09.770Z,100521.66
2022-09-06T18:40:36.614Z,100511.97
2022-09-06T18:43:03.973Z,100509.34
2022-09-06T18:45:34.052Z,100509.38
2022-09-06T18:48:00.943Z,100522.63
2022-09-06T18:50:34.372Z,100377.38
2022-09-06T18:53:01.166Z,100407.16
2022-09-06T18:57:56.393Z,100516.63
2022-09-06T19:00:25.712Z,100521.97
2022-09-06T19:02:57.581Z,100529.06
2022-09-06T19:05:24.431Z,100522.06
2022-09-06T19:07:51.449Z,100522.13
2022-09-06T19:10:20.481Z,100531.84
2022-09-06T19:12:51.318Z,100537.16
2022-09-06T19:15:20.609Z,100431.22
2022-09-06T19:17:50.912Z,100514.38
2022-09-06T19:20:21.009Z,100434.72
2022-09-06T19:22:58.646Z,100519.66
2022-09-06T19:25:27.830Z,100520.59
2022-09-06T19:27:57.163Z,100527.66
2022-09-06T19:30:24.079Z,100515.34
2022-09-06T19:32:53.379Z,100518.91
2022-09-06T19:35:20.315Z,100515.34
2022-09-06T19:37:49.399Z,100462.88
2022-09-06T19:40:28.250Z,100516.28
2022-09-06T19:43:03.065Z,100479.53
2022-09-06T19:45:32.800Z,100454.22
2022-09-06T19:48:01.985Z,100511.97
2022-09-06T19:50:31.465Z,100446.34
2022-09-06T19:52:58.128Z,100499.69
2022-09-06T19:55:31.145Z,100501.47
2022-09-06T19:58:03.412Z,100499.75
2022-09-06T20:00:35.501Z,100491.81
2022-09-06T20:03:02.587Z,100493.63
2022-09-06T20:05:31.579Z,100491.91
2022-09-06T20:07:58.260Z,100393.88
2022-09-06T20:10:25.714Z,100463.09
2022-09-06T20:12:53.421Z,100445.59
2022-09-06T20:15:20.408Z,100458.72
2022-09-06T20:17:49.299Z,100341.50
2022-09-06T20:20:19.321Z,100314.34
2022-09-06T20:22:50.900Z,100347.69
2022-09-06T20:25:17.864Z,100410.72
2022-09-06T20:27:44.813Z,100415.94
2022-09-06T20:30:12.204Z,100488.63
2022-09-06T20:32:39.174Z,100487.78
2022-09-06T20:35:07.018Z,100500.03
2022-09-06T20:37:33.759Z,100466.72
2022-09-06T20:40:01.514Z,100498.25
2022-09-06T20:42:30.958Z,100494.72
2022-09-06T20:44:58.220Z,100497.34
2022-09-06T20:47:24.900Z,100387.00
2022-09-06T20:49:51.630Z,100498.22
2022-09-06T20:52:23.211Z,100489.50
2022-09-06T20:54:50.112Z,100502.69
2022-09-06T20:57:19.463Z,100506.13
2022-09-06T20:59:49.332Z,100500.84
2022-09-06T21:02:16.769Z,100471.97
2022-09-06T21:04:43.787Z,100458.78
2022-09-06T21:07:12.814Z,100493.78
2022-09-06T21:09:42.556Z,100469.16
2022-09-06T21:12:10.840Z,100492.81
2022-09-06T21:14:37.665Z,100491.94
2022-09-06T21:17:05.389Z,100404.44
2022-09-06T21:19:32.173Z,100421.06
2022-09-06T21:21:59.255Z,100491.13
2022-09-06T21:24:28.088Z,100297.59
2022-09-06T21:26:54.913Z,100483.19
2022-09-06T21:29:21.707Z,100210.19
2022-09-06T21:31:48.490Z,100295.00
2022-09-06T21:34:17.124Z,100274.94
2022-09-06T21:36:44.452Z,100484.13
2022-09-06T21:39:13.939Z,100485.91
2022-09-06T21:41:42.270Z,100480.63
2022-09-06T21:44:09.346Z,100483.25
2022-09-06T21:46:39.345Z,100412.38
2022-09-06T21:49:13.855Z,100485.13
2022-09-06T21:51:41.257Z,100478.06
2022-09-06T21:54:10.980Z,100433.50
2022-09-06T21:56:38.917Z,100481.69
2022-09-06T21:59:11.963Z,100355.59
2022-09-06T22:01:39.731Z,100477.34
2022-09-06T22:04:10.488Z,100332.88
2022-09-06T22:06:37.798Z,100480.91
2022-09-06T22:09:11.375Z,100404.72
2022-09-06T22:11:59.339Z,100324.19
2022-09-06T22:14:26.355Z,100488.88
2022-09-06T22:16:53.515Z,100225.34
2022-09-06T22:19:20.244Z,100498.56
2022-09-06T22:21:47.136Z,100479.25
2022-09-06T22:24:17.476Z,100276.97
2022-09-06T22:26:46.352Z,100431.97
2022-09-06T22:29:16.769Z,100486.31
2022-09-06T22:31:46.962Z,100474.00
2022-09-06T22:34:15.020Z,100327.75
2022-09-06T22:36:41.982Z,100347.91
2022-09-06T22:39:09.569Z,100319.03
2022-09-06T22:41:36.631Z,100394.31
2022-09-06T22:44:04.232Z,100475.81
2022-09-06T22:46:31.386Z,100432.00
2022-09-06T22:48:58.881Z,100319.03
2022-09-06T22:51:28.673Z,100466.19
2022-09-06T22:53:55.652Z,100371.56
2022-09-06T22:56:24.649Z,100460.94
2022-09-06T22:58:51.437Z,100259.50
2022-09-06T23:01:18.475Z,100464.50
2022-09-06T23:03:46.910Z,100469.78
2022-09-06T23:06:16.844Z,100294.56
2022-09-06T23:08:44.356Z,100321.69
2022-09-06T23:11:15.958Z,100368.13
2022-09-06T23:13:47.249Z,100427.72
2022-09-06T23:16:20.971Z,100456.69
2022-09-06T23:18:50.459Z,100467.19
2022-09-06T23:21:19.502Z,100453.16
2022-09-06T23:23:51.013Z,100449.66
2022-09-06T23:26:21.059Z,100421.63
2022-09-06T23:28:51.704Z,100416.34
2022-09-06T23:31:18.695Z,100450.53
2022-09-06T23:33:45.600Z,100320.84
2022-09-06T23:36:13.690Z,100451.44
2022-09-06T23:38:43.887Z,100313.84
2022-09-06T23:41:11.539Z,100446.16
2022-09-06T23:43:40.990Z,100300.69
2022-09-06T23:46:08.543Z,100403.22
2022-09-06T23:48:36.009Z,100331.34
2022-09-06T23:51:03.366Z,100390.94
2022-09-06T23:53:30.295Z,100207.78
2022-09-06T23:55:57.210Z,100431.25
2022-09-06T23:58:24.372Z,100448.78
